createdAt,value
2018-02-04T00:00:24.951Z,9.35
2018-02-04T00:02:51.943Z,8.82
2018-02-04T00:05:18.194Z,9.38
2018-02-04T00:07:44.424Z,10.55
2018-02-04T00:10:10.729Z,10.93
2018-02-04T00:12:36.977Z,10.00
2018-02-04T00:15:03.254Z,10.23
2018-02-04T00:17:29.495Z,10.60
2018-02-04T00:19:55.742Z,10.75
2018-02-04T00:22:34.335Z,10.68
2018-02-04T00:25:01.327Z,11.07
2018-02-04T00:27:27.582Z,10.70
2018-02-04T00:29:53.831Z,11.40
2018-02-04T00:32:20.105Z,10.73
2018-02-04T00:34:46.377Z,10.60
2018-02-04T00:37:12.615Z,12.13
2018-02-04T00:39:38.888Z,10.68
2018-02-04T00:42:05.147Z,10.32
2018-02-04T00:44:31.402Z,10.75
2018-02-04T00:46:57.659Z,10.15
2018-02-04T00:49:24.647Z,11.20
2018-02-04T00:51:50.950Z,10.18
2018-02-04T00:54:17.181Z,9.45
2018-02-04T00:56:43.547Z,9.32
2018-02-04T00:59:10.550Z,9.65
2018-02-04T01:01:36.872Z,10.95
2018-02-04T01:04:03.126Z,10.68
2018-02-04T01:06:29.359Z,10.65
2018-02-04T01:08:55.639Z,10.70
2018-02-04T01:11:21.876Z,10.07
2018-02-04T01:13:48.881Z,10.02
2018-02-04T01:16:15.876Z,10.75
2018-02-04T01:18:42.139Z,9.20
2018-02-04T01:21:09.143Z,10.45
2018-02-04T01:23:36.092Z,11.07
2018-02-04T01:26:03.094Z,11.18
2018-02-04T01:28:29.328Z,10.15
2018-02-04T01:30:55.588Z,10.60
2018-02-04T01:33:21.819Z,11.32
2018-02-04T01:35:48.062Z,11.45
2018-02-04T01:38:14.306Z,10.50
2018-02-04T01:40:40.538Z,11.75
2018-02-04T01:43:06.803Z,11.27
2018-02-04T01:45:33.030Z,11.60
2018-02-04T01:48:05.144Z,10.32
2018-02-04T01:50:32.162Z,10.68
2018-02-04T01:52:58.382Z,10.15
2018-02-04T01:55:24.667Z,12.15
2018-02-04T01:57:50.995Z,12.52
2018-02-04T02:00:17.257Z,11.82
2018-02-04T02:02:43.512Z,11.70
2018-02-04T02:05:10.499Z,12.30
2018-02-04T02:07:36.776Z,12.45
2018-02-04T02:10:03.024Z,12.63
2018-02-04T02:12:29.282Z,11.88
2018-02-04T02:14:55.527Z,13.62
2018-02-04T02:17:22.781Z,12.18
2018-02-04T02:19:49.046Z,12.90
2018-02-04T02:22:16.066Z,13.15
2018-02-04T02:24:42.334Z,14.23
2018-02-04T02:27:09.344Z,13.75
2018-02-04T02:29:35.604Z,14.48
2018-02-04T02:32:01.836Z,12.90
2018-02-04T02:34:28.096Z,14.05
2018-02-04T02:36:54.364Z,15.73
2018-02-04T02:39:21.611Z,17.40
2018-02-04T02:41:47.870Z,14.18
2018-02-04T02:44:14.860Z,14.77
2018-02-04T02:46:41.116Z,13.95
2018-02-04T02:49:07.342Z,13.52
2018-02-04T02:51:33.607Z,14.20
2018-02-04T02:53:59.891Z,14.25
2018-02-04T02:56:26.928Z,13.75
2018-02-04T02:58:53.175Z,15.68
2018-02-04T03:01:19.741Z,13.57
2018-02-04T03:03:45.988Z,13.82
2018-02-04T03:06:12.987Z,14.23
2018-02-04T03:08:39.255Z,14.75
2018-02-04T03:11:05.515Z,13.95
2018-02-04T03:13:32.521Z,14.90
2018-02-04T03:15:58.781Z,14.00
2018-02-04T03:18:25.779Z,13.20
2018-02-04T03:20:52.772Z,14.48
2018-02-04T03:23:19.897Z,15.38
2018-02-04T03:25:46.891Z,14.50
2018-02-04T03:28:13.119Z,15.48
2018-02-04T03:30:39.360Z,15.50
2018-02-04T03:33:05.659Z,17.42
2018-02-04T03:35:31.919Z,15.77
2018-02-04T03:37:58.921Z,17.12
2018-02-04T03:40:25.175Z,16.58
2018-02-04T03:42:51.442Z,15.05
2018-02-04T03:45:17.709Z,15.77
2018-02-04T03:47:44.734Z,15.65
2018-02-04T03:50:11.006Z,15.48
2018-02-04T03:52:37.991Z,16.42
2018-02-04T03:55:04.259Z,15.27
2018-02-04T03:57:30.501Z,15.85
2018-02-04T03:59:56.753Z,14.65
2018-02-04T04:02:23.011Z,17.83
2018-02-04T04:04:49.239Z,15.75
2018-02-04T04:07:15.499Z,17.62
2018-02-04T04:09:42.487Z,17.58
2018-02-04T04:12:08.723Z,16.55
2018-02-04T04:14:34.960Z,15.63
2018-02-04T04:17:01.212Z,17.40
2018-02-04T04:19:27.438Z,17.15
2018-02-04T04:21:53.770Z,17.60
2018-02-04T04:24:22.566Z,16.17
2018-02-04T04:26:49.558Z,16.17
2018-02-04T04:29:15.801Z,17.50
2018-02-04T04:31:42.018Z,18.87
2018-02-04T04:34:08.274Z,18.05
2018-02-04T04:36:34.495Z,16.60
2018-02-04T04:39:01.468Z,17.37
2018-02-04T04:41:27.708Z,16.05
2018-02-04T04:43:53.955Z,16.45
2018-02-04T04:46:20.191Z,15.38
2018-02-04T04:48:46.416Z,16.60
2018-02-04T04:51:13.676Z,16.90
2018-02-04T04:53:40.638Z,16.67
2018-02-04T04:56:06.986Z,16.02
2018-02-04T04:58:33.227Z,16.00
2018-02-04T05:00:59.483Z,15.43
2018-02-04T05:03:25.793Z,15.75
2018-02-04T05:05:52.777Z,16.95
2018-02-04T05:08:19.033Z,16.92
2018-02-04T05:10:45.305Z,15.93
2018-02-04T05:13:11.578Z,16.33
2018-02-04T05:15:38.569Z,15.05
2018-02-04T05:18:04.823Z,15.60
2018-02-04T05:20:31.069Z,15.63
2018-02-04T05:22:57.327Z,17.73
2018-02-04T05:25:23.571Z,15.63
2018-02-04T05:27:49.829Z,16.48
2018-02-04T05:30:16.801Z,17.75
2018-02-04T05:32:44.146Z,14.30
2018-02-04T05:35:10.375Z,15.73
2018-02-04T05:37:36.624Z,15.27
2018-02-04T05:40:02.908Z,14.43
2018-02-04T05:42:29.130Z,14.25
2018-02-04T05:44:56.187Z,15.00
2018-02-04T05:47:23.215Z,14.63
2018-02-04T05:49:49.507Z,15.85
2018-02-04T05:52:15.736Z,13.80
2018-02-04T05:54:42.012Z,14.75
2018-02-04T05:57:08.306Z,15.30
2018-02-04T05:59:35.270Z,13.90
2018-02-04T06:02:02.276Z,12.98
2018-02-04T06:04:28.528Z,13.13
2018-02-04T06:06:54.797Z,12.70
2018-02-04T06:09:21.791Z,14.07
2018-02-04T06:11:48.034Z,13.80
2018-02-04T06:14:14.298Z,12.77
2018-02-04T06:16:40.566Z,13.75
2018-02-04T06:19:06.816Z,13.18
2018-02-04T06:21:33.880Z,13.38
2018-02-04T06:24:00.897Z,12.00
2018-02-04T06:26:27.168Z,12.90
2018-02-04T06:28:53.447Z,13.57
2018-02-04T06:31:19.709Z,14.50
2018-02-04T06:33:45.996Z,11.15
2018-02-04T06:36:12.239Z,10.77
2018-02-04T06:38:38.518Z,11.57
2018-02-04T06:41:04.752Z,12.20
2018-02-04T06:43:31.015Z,12.13
2018-02-04T06:45:57.224Z,11.30
2018-02-04T06:48:24.232Z,13.40
2018-02-04T06:50:50.493Z,14.98
2018-02-04T06:53:16.736Z,13.00
2018-02-04T06:55:45.137Z,12.93
2018-02-04T06:58:12.150Z,11.55
2018-02-04T07:00:38.376Z,12.23
2018-02-04T07:03:04.637Z,12.35
2018-02-04T07:05:30.855Z,10.80
2018-02-04T07:07:57.130Z,11.43
2018-02-04T07:10:23.380Z,12.63
2018-02-04T07:12:50.634Z,14.18
2018-02-04T07:15:16.913Z,12.48
2018-02-04T07:17:43.894Z,13.65
2018-02-04T07:20:10.157Z,12.95
2018-02-04T07:22:36.452Z,12.30
2018-02-04T07:25:03.483Z,14.38
2018-02-04T07:27:29.717Z,15.70
2018-02-04T07:29:56.188Z,15.95
2018-02-04T07:32:23.218Z,14.93
2018-02-04T07:34:49.500Z,14.68
2018-02-04T07:37:16.531Z,15.13
2018-02-04T07:39:42.785Z,16.33
2018-02-04T07:42:09.028Z,16.48
2018-02-04T07:44:36.059Z,16.42
2018-02-04T07:47:02.335Z,18.10
2018-02-04T07:49:29.313Z,13.70
2018-02-04T07:51:55.557Z,15.52
2018-02-04T07:54:21.830Z,14.43
2018-02-04T07:56:48.095Z,11.55
2018-02-04T07:59:14.346Z,13.38
2018-02-04T08:01:40.576Z,14.43
2018-02-04T08:04:06.889Z,12.95
2018-02-04T08:06:33.228Z,12.48
2018-02-04T08:08:59.475Z,15.35
2018-02-04T08:11:25.740Z,14.85
2018-02-04T08:13:51.987Z,13.50
2018-02-04T08:16:18.249Z,15.15
2018-02-04T08:18:45.239Z,14.75
2018-02-04T08:21:11.514Z,13.98
2018-02-04T08:23:37.747Z,13.18
2018-02-04T08:26:04.010Z,13.10
2018-02-04T08:28:30.296Z,13.00
2018-02-04T08:30:56.521Z,12.77
2018-02-04T08:33:22.790Z,11.98
2018-02-04T08:35:49.039Z,12.63
2018-02-04T08:38:15.353Z,12.40
2018-02-04T08:40:41.649Z,12.77
2018-02-04T08:43:07.905Z,14.55
2018-02-04T08:45:34.167Z,14.02
2018-02-04T08:48:01.170Z,14.45
2018-02-04T08:50:27.465Z,13.02
2018-02-04T08:52:54.504Z,13.30
2018-02-04T08:55:20.771Z,12.70
2018-02-04T08:57:47.865Z,12.05
2018-02-04T09:00:14.134Z,13.18
2018-02-04T09:02:47.270Z,12.48
2018-02-04T09:05:14.280Z,14.02
2018-02-04T09:07:41.250Z,13.93
2018-02-04T09:10:07.525Z,12.95
2018-02-04T09:12:34.505Z,14.10
2018-02-04T09:15:00.799Z,13.23
2018-02-04T09:17:27.047Z,14.15
2018-02-04T09:19:53.350Z,11.90
2018-02-04T09:22:19.642Z,13.80
2018-02-04T09:24:45.878Z,14.85
2018-02-04T09:27:12.181Z,14.40
2018-02-04T09:29:38.417Z,14.02
2018-02-04T09:32:04.690Z,13.93
2018-02-04T09:34:30.912Z,16.70
2018-02-04T09:36:57.898Z,23.52
2018-02-04T09:39:24.194Z,14.60
2018-02-04T09:41:50.432Z,14.15
2018-02-04T09:44:16.708Z,14.05
2018-02-04T09:46:42.962Z,14.00
2018-02-04T09:49:09.967Z,14.40
2018-02-04T09:51:36.256Z,14.23
2018-02-04T09:54:02.530Z,13.73
2018-02-04T09:56:28.801Z,16.52
2018-02-04T09:58:55.072Z,15.45
2018-02-04T10:01:21.336Z,14.02
2018-02-04T10:03:48.415Z,16.55
2018-02-04T10:06:14.673Z,16.50
2018-02-04T10:08:40.938Z,15.40
2018-02-04T10:11:07.198Z,14.63
2018-02-04T10:13:33.438Z,14.77
2018-02-04T10:15:59.730Z,13.82
2018-02-04T10:18:26.008Z,15.13
2018-02-04T10:20:54.456Z,15.68
2018-02-04T10:23:20.765Z,15.18
2018-02-04T10:25:47.037Z,15.68
2018-02-04T10:28:13.341Z,16.00
2018-02-04T10:30:39.683Z,15.65
2018-02-04T10:33:05.913Z,17.02
2018-02-04T10:35:33.670Z,15.98
2018-02-04T10:37:59.980Z,16.02
2018-02-04T10:40:26.271Z,16.27
2018-02-04T10:42:52.538Z,16.00
2018-02-04T10:45:19.557Z,15.80
2018-02-04T10:47:45.850Z,16.05
2018-02-04T10:50:12.874Z,17.95
2018-02-04T10:52:39.132Z,16.80
2018-02-04T10:55:05.459Z,20.92
2018-02-04T10:57:31.722Z,18.73
2018-02-04T10:59:58.771Z,17.33
2018-02-04T11:02:25.042Z,17.33
2018-02-04T11:04:51.446Z,16.98
2018-02-04T11:07:17.817Z,16.90
2018-02-04T11:09:44.162Z,16.00
2018-02-04T11:12:10.501Z,17.50
2018-02-04T11:14:37.538Z,16.92
2018-02-04T11:17:03.873Z,17.77
2018-02-04T11:19:30.189Z,17.27
2018-02-04T11:21:56.522Z,18.50
2018-02-04T11:24:22.817Z,16.50
2018-02-04T11:26:49.097Z,16.87
2018-02-04T11:29:15.383Z,19.17
2018-02-04T11:31:41.678Z,22.05
2018-02-04T11:34:07.985Z,19.70
2018-02-04T11:36:34.288Z,15.95
2018-02-04T11:39:00.533Z,16.40
2018-02-04T11:41:26.846Z,17.27
2018-02-04T11:43:53.138Z,15.95
2018-02-04T11:46:19.428Z,17.62
2018-02-04T11:48:45.772Z,17.12
2018-02-04T11:51:12.069Z,15.18
2018-02-04T11:53:38.381Z,14.30
2018-02-04T11:56:04.694Z,15.23
2018-02-04T11:58:31.023Z,16.20
2018-02-04T12:00:58.126Z,15.52
2018-02-04T12:03:24.432Z,14.60
2018-02-04T12:05:50.728Z,14.20
2018-02-04T12:08:17.017Z,16.48
2018-02-04T12:10:43.306Z,16.52
2018-02-04T12:13:09.617Z,18.48
2018-02-04T12:15:35.911Z,22.05
2018-02-04T12:18:02.227Z,22.50
2018-02-04T12:20:28.504Z,24.48
2018-02-04T12:22:54.802Z,25.55
2018-02-04T12:25:21.788Z,19.95
2018-02-04T12:27:48.058Z,21.40
2018-02-04T12:30:15.072Z,20.45
2018-02-04T12:32:41.370Z,18.02
2018-02-04T12:35:07.660Z,19.90
2018-02-04T12:37:33.934Z,16.35
2018-02-04T12:40:00.967Z,15.05
2018-02-04T12:42:27.275Z,16.37
2018-02-04T12:44:53.574Z,16.50
2018-02-04T12:47:20.604Z,14.73
2018-02-04T12:49:46.943Z,14.15
2018-02-04T12:52:13.300Z,11.88
2018-02-04T12:54:39.601Z,12.55
2018-02-04T12:57:05.895Z,11.27
2018-02-04T12:59:32.212Z,10.82
2018-02-04T13:01:58.586Z,11.15
2018-02-04T13:04:24.992Z,11.90
2018-02-04T13:06:51.320Z,12.15
2018-02-04T13:09:17.664Z,11.55
2018-02-04T13:11:43.983Z,13.02
2018-02-04T13:14:11.037Z,12.77
2018-02-04T13:16:38.198Z,14.45
2018-02-04T13:19:05.265Z,13.50
2018-02-04T13:21:31.600Z,14.52
2018-02-04T13:23:57.913Z,15.35
2018-02-04T13:26:24.281Z,12.75
2018-02-04T13:28:51.355Z,14.18
2018-02-04T13:31:17.672Z,14.90
2018-02-04T13:33:44.006Z,14.25
2018-02-04T13:36:10.328Z,14.07
2018-02-04T13:38:36.611Z,13.25
2018-02-04T13:41:03.744Z,12.77
2018-02-04T13:43:30.102Z,13.68
2018-02-04T13:45:56.424Z,15.23
2018-02-04T13:48:23.497Z,14.40
2018-02-04T13:50:49.871Z,14.38
2018-02-04T13:53:16.933Z,14.40
2018-02-04T13:55:44.004Z,12.95
2018-02-04T13:58:10.367Z,14.02
2018-02-04T14:00:36.703Z,12.90
2018-02-04T14:03:02.989Z,13.45
2018-02-04T14:05:29.333Z,13.55
2018-02-04T14:07:55.674Z,14.98
2018-02-04T14:10:21.994Z,13.60
2018-02-04T14:12:48.285Z,14.45
2018-02-04T14:15:15.358Z,14.40
2018-02-04T14:17:41.736Z,14.75
2018-02-04T14:20:08.067Z,16.30
2018-02-04T14:22:34.427Z,15.85
2018-02-04T14:25:00.748Z,14.27
2018-02-04T14:27:27.099Z,16.15
2018-02-04T14:29:53.431Z,16.73
2018-02-04T14:32:19.721Z,17.55
2018-02-04T14:34:46.112Z,17.75
2018-02-04T14:37:12.458Z,17.33
2018-02-04T14:39:38.738Z,18.33
2018-02-04T14:42:05.123Z,16.12
2018-02-04T14:44:31.526Z,15.98
2018-02-04T14:46:57.871Z,16.90
2018-02-04T14:49:24.244Z,18.02
2018-02-04T14:51:51.298Z,16.58
2018-02-04T14:54:18.345Z,16.35
2018-02-04T14:56:44.658Z,15.95
2018-02-04T14:59:10.976Z,15.43
2018-02-04T15:01:37.254Z,16.30
2018-02-04T15:04:03.608Z,16.23
2018-02-04T15:06:30.002Z,14.93
2018-02-04T15:08:56.421Z,14.60
2018-02-04T15:11:22.833Z,14.57
2018-02-04T15:13:49.208Z,16.10
2018-02-04T15:16:16.282Z,18.10
2018-02-04T15:18:42.713Z,13.40
2018-02-04T15:21:09.007Z,11.93
2018-02-04T15:23:35.336Z,14.55
2018-02-04T15:26:01.678Z,14.50
2018-02-04T15:28:34.995Z,13.90
2018-02-04T15:31:01.342Z,13.48
2018-02-04T15:33:27.709Z,13.15
2018-02-04T15:35:55.366Z,13.80
2018-02-04T15:38:21.739Z,13.15
2018-02-04T15:40:48.107Z,14.30
2018-02-04T15:43:15.229Z,12.73
2018-02-04T15:45:41.593Z,13.82
2018-02-04T15:48:07.955Z,14.82
2018-02-04T15:50:35.056Z,17.70
2018-02-04T15:53:01.455Z,16.70
2018-02-04T15:55:28.560Z,16.65
2018-02-04T15:57:54.923Z,14.43
2018-02-04T16:00:21.545Z,17.95
2018-02-04T16:02:47.924Z,18.08
2018-02-04T16:05:14.271Z,15.00
2018-02-04T16:07:40.593Z,13.00
2018-02-04T16:10:06.933Z,13.10
2018-02-04T16:12:33.263Z,12.57
2018-02-04T16:14:59.704Z,12.85
2018-02-04T16:17:26.048Z,13.52
2018-02-04T16:19:52.405Z,13.25
2018-02-04T16:22:18.735Z,13.23
2018-02-04T16:24:45.035Z,13.52
2018-02-04T16:27:12.250Z,15.27
2018-02-04T16:29:38.610Z,16.52
2018-02-04T16:32:04.992Z,17.37
2018-02-04T16:34:32.242Z,16.00
2018-02-04T16:36:59.338Z,18.42
2018-02-04T16:39:25.681Z,17.20
2018-02-04T16:41:52.047Z,17.70
2018-02-04T16:44:18.397Z,16.73
2018-02-04T16:46:44.750Z,17.75
2018-02-04T16:49:11.080Z,17.15
2018-02-04T16:51:37.442Z,16.87
2018-02-04T16:54:03.801Z,16.25
2018-02-04T16:56:30.217Z,17.65
2018-02-04T16:58:56.551Z,16.08
2018-02-04T17:01:22.898Z,17.10
2018-02-04T17:03:49.260Z,17.17
2018-02-04T17:06:15.626Z,15.75
2018-02-04T17:08:42.007Z,17.85
2018-02-04T17:11:08.320Z,16.87
2018-02-04T17:13:35.369Z,16.92
2018-02-04T17:16:02.468Z,17.45
2018-02-04T17:18:28.845Z,17.62
2018-02-04T17:20:55.166Z,16.52
2018-02-04T17:23:21.518Z,17.65
2018-02-04T17:25:47.842Z,18.95
2018-02-04T17:28:14.220Z,18.42
2018-02-04T17:30:40.587Z,20.05
2018-02-04T17:33:06.941Z,20.10
2018-02-04T17:35:34.119Z,19.80
2018-02-04T17:38:00.481Z,21.10
2018-02-04T17:40:26.865Z,19.45
2018-02-04T17:42:53.232Z,21.98
2018-02-04T17:45:19.631Z,23.50
2018-02-04T17:47:45.999Z,23.00
2018-02-04T17:50:12.406Z,20.25
2018-02-04T17:52:38.838Z,18.83
2018-02-04T17:55:05.229Z,22.17
2018-02-04T17:57:31.580Z,20.80
2018-02-04T17:59:57.918Z,16.70
2018-02-04T18:02:24.228Z,17.73
2018-02-04T18:04:50.667Z,18.05
2018-02-04T18:07:16.995Z,17.05
2018-02-04T18:09:43.365Z,17.12
2018-02-04T18:12:09.756Z,15.93
2018-02-04T18:14:36.086Z,16.55
2018-02-04T18:17:03.081Z,15.45
2018-02-04T18:19:29.456Z,17.77
2018-02-04T18:21:55.789Z,15.18
2018-02-04T18:24:22.202Z,18.00
2018-02-04T18:26:48.568Z,18.70
2018-02-04T18:29:14.926Z,18.37
2018-02-04T18:31:42.350Z,18.92
2018-02-04T18:34:09.634Z,18.48
2018-02-04T18:36:36.021Z,19.17
2018-02-04T18:39:04.757Z,17.65
2018-02-04T18:41:31.950Z,18.40
2018-02-04T18:43:59.079Z,17.08
2018-02-04T18:46:26.195Z,18.17
2018-02-04T18:48:52.529Z,19.17
2018-02-04T18:51:18.906Z,17.70
2018-02-04T18:53:46.260Z,18.65
2018-02-04T18:56:12.610Z,20.02
2018-02-04T18:58:38.993Z,20.25
2018-02-04T19:01:11.296Z,19.80
2018-02-04T19:03:37.888Z,18.55
2018-02-04T19:06:04.255Z,19.95
2018-02-04T19:08:31.340Z,18.48
2018-02-04T19:10:57.773Z,20.90
2018-02-04T19:13:24.127Z,20.65
2018-02-04T19:15:50.460Z,21.17
2018-02-04T19:18:16.844Z,22.62
2018-02-04T19:20:43.218Z,21.33
2018-02-04T19:23:09.637Z,21.65
2018-02-04T19:25:36.007Z,20.17
2018-02-04T19:28:02.330Z,23.75
2018-02-04T19:30:29.575Z,21.65
2018-02-04T19:32:55.959Z,22.33
2018-02-04T19:35:23.160Z,23.48
2018-02-04T19:37:49.542Z,22.33
2018-02-04T19:40:15.987Z,19.80
2018-02-04T19:42:42.364Z,20.00
2018-02-04T19:45:09.491Z,21.75
2018-02-04T19:47:35.884Z,20.55
2018-02-04T19:50:02.411Z,19.87
2018-02-04T19:52:29.553Z,19.62
2018-02-04T19:54:57.784Z,18.23
2018-02-04T19:57:24.313Z,19.87
2018-02-04T19:59:51.425Z,20.33
2018-02-04T20:02:17.857Z,19.40
2018-02-04T20:04:44.244Z,19.35
2018-02-04T20:07:10.622Z,19.95
2018-02-04T20:09:37.052Z,21.60
2018-02-04T20:12:04.172Z,22.40
2018-02-04T20:14:30.494Z,22.83
2018-02-04T20:16:56.856Z,23.45
2018-02-04T20:19:23.187Z,21.23
2018-02-04T20:21:49.534Z,19.85
2018-02-04T20:24:22.880Z,21.27
2018-02-04T20:26:51.913Z,21.55
2018-02-04T20:29:20.155Z,23.10
2018-02-04T20:31:46.556Z,20.70
2018-02-04T20:34:25.153Z,22.85
2018-02-04T20:36:51.567Z,21.87
2018-02-04T20:39:18.164Z,21.90
2018-02-04T20:41:44.552Z,21.37
2018-02-04T20:44:10.919Z,21.87
2018-02-04T20:46:37.307Z,21.55
2018-02-04T20:49:03.732Z,20.67
2018-02-04T20:51:30.884Z,22.20
2018-02-04T20:53:57.568Z,21.50
2018-02-04T20:56:23.976Z,22.95
2018-02-04T20:58:50.345Z,22.00
2018-02-04T21:01:17.497Z,18.60
2018-02-04T21:03:44.686Z,21.30
2018-02-04T21:06:11.268Z,21.52
2018-02-04T21:08:39.348Z,18.80
2018-02-04T21:11:05.645Z,19.95
2018-02-04T21:13:32.703Z,22.95
2018-02-04T21:15:59.814Z,23.02
2018-02-04T21:18:26.165Z,19.83
2018-02-04T21:20:52.550Z,22.75
2018-02-04T21:23:20.417Z,21.40
2018-02-04T21:25:47.932Z,24.30
2018-02-04T21:28:14.285Z,22.52
2018-02-04T21:30:41.211Z,22.20
2018-02-04T21:33:08.703Z,21.92
2018-02-04T21:35:37.461Z,23.40
2018-02-04T21:38:04.597Z,20.52
2018-02-04T21:40:31.276Z,20.65
2018-02-04T21:42:58.425Z,19.70
2018-02-04T21:45:24.695Z,18.75
2018-02-04T21:47:51.762Z,21.20
2018-02-04T21:50:19.328Z,21.98
2018-02-04T21:52:45.787Z,20.23
2018-02-04T21:55:12.227Z,22.15
2018-02-04T21:57:39.212Z,22.75
2018-02-04T22:00:05.491Z,22.05
2018-02-04T22:02:31.756Z,22.08
2018-02-04T22:04:58.785Z,22.58
2018-02-04T22:07:25.111Z,20.20
2018-02-04T22:09:51.408Z,20.35
2018-02-04T22:12:17.699Z,19.55
2018-02-04T22:14:43.966Z,20.85
2018-02-04T22:17:11.756Z,21.65
2018-02-04T22:19:38.781Z,20.30
2018-02-04T22:22:05.113Z,19.37
2018-02-04T22:24:31.386Z,18.23
2018-02-04T22:26:58.398Z,19.40
2018-02-04T22:29:24.663Z,20.52
2018-02-04T22:31:50.912Z,18.10
2018-02-04T22:34:17.275Z,20.80
2018-02-04T22:36:44.247Z,20.90
2018-02-04T22:39:10.511Z,19.27
2018-02-04T22:41:36.730Z,22.52
2018-02-04T22:44:02.983Z,20.35
2018-02-04T22:46:29.234Z,21.50
2018-02-04T22:48:55.484Z,21.40
2018-02-04T22:51:21.785Z,23.05
2018-02-04T22:53:48.765Z,23.42
2018-02-04T22:56:15.032Z,20.12
2018-02-04T22:58:41.310Z,22.58
2018-02-04T23:01:07.587Z,20.73
2018-02-04T23:03:33.852Z,19.85
2018-02-04T23:06:00.830Z,21.45
2018-02-04T23:08:27.081Z,21.20
2018-02-04T23:10:53.329Z,20.58
2018-02-04T23:13:19.868Z,20.23
2018-02-04T23:15:46.145Z,21.45
2018-02-04T23:18:12.378Z,20.50
2018-02-04T23:20:39.403Z,20.60
2018-02-04T23:23:05.684Z,20.88
2018-02-04T23:25:32.679Z,21.80
2018-02-04T23:27:58.938Z,23.55
2018-02-04T23:30:25.209Z,23.55
2018-02-04T23:32:52.211Z,21.35
2018-02-04T23:35:18.480Z,23.73
2018-02-04T23:37:44.757Z,20.90
2018-02-04T23:40:11.726Z,22.98
2018-02-04T23:42:37.965Z,22.48
2018-02-04T23:45:04.243Z,22.75
2018-02-04T23:47:30.496Z,22.48
2018-02-04T23:49:56.757Z,23.08
2018-02-04T23:52:23.009Z,22.08
2018-02-04T23:54:50.005Z,24.35
2018-02-04T23:57:16.274Z,22.85
2018-02-04T23:59:42.541Z,21.27
